Absecon, New Jersey
Current Conditions -  °F | °C
As of 6:54 AM on Friday 31 Oct 2014 (Local Time) from KACY Reporting Station
Clear Clear  
Wind Chill: 30°   Ceiling: Unl
Heat Index: 35°   Visibility: 10mi
Dew Point: 32°   Wind: 6mph
Humidity: 89%   Direction: 320°NW
Pressure: 30"   Gusts: NA
Location:  39.43°N, 74.51°W
Report Text: KACY 311054Z 32005KT 10SM CLR 02/00 A3000 RMK AO2 SLP160 T00170000
Loading
Personal Weather Stations






























Interactive Weather Map
Tropical Storm Tracking
New forecast layout! Learn more

10-Day Weather Forecast

Advertisements
Track Severe Weather on mobile